Time;durP1;ratioP1;P1;durP2;ratioP2;P2;SDS_P1;SDS_P2;PMS_P1;PMS_P2;Temp;Humidity;BMP_temperature;BMP_pressure;BME280_temperature;BME280_humidity;BME280_pressure;Samples;Min_cycle;Max_cycle;Signal;HPM_P1;HPM_P2
2023/05/17 00:00:08;;;;;;;6.22;0.80;;;;;;;10.61;75.51;102646.09;5097215;27;97975;-29
2023/05/17 00:02:34;;;;;;;2.70;1.05;;;;;;;10.57;75.61;102639.88;5078864;27;99062;-29
2023/05/17 00:04:59;;;;;;;0.73;0.55;;;;;;;10.61;75.93;102644.28;5097272;27;96663;-29
2023/05/17 00:07:24;;;;;;;4.55;1.00;;;;;;;10.56;75.74;102638.13;5097156;27;96865;-29
2023/05/17 00:09:50;;;;;;;4.32;0.77;;;;;;;10.57;76.10;102629.03;5096525;27;98027;-28
2023/05/17 00:12:15;;;;;;;3.00;0.77;;;;;;;10.58;76.40;102638.97;5096003;27;97890;-29
2023/05/17 00:14:40;;;;;;;4.78;0.88;;;;;;;10.56;75.41;102632.72;5078564;27;96544;-29
2023/05/17 00:17:06;;;;;;;1.50;0.77;;;;;;;10.60;76.11;102633.47;5097293;27;96691;-29
2023/05/17 00:19:31;;;;;;;1.55;0.52;;;;;;;10.58;75.87;102638.06;5096842;27;97917;-30
2023/05/17 00:21:56;;;;;;;1.77;0.80;;;;;;;10.57;76.77;102637.19;5097283;27;97336;-29
2023/05/17 00:24:22;;;;;;;3.65;0.68;;;;;;;10.60;75.65;102634.34;5096851;27;96622;-29
2023/05/17 00:26:47;;;;;;;4.00;0.63;;;;;;;10.56;75.76;102631.81;5097317;27;96829;-29
2023/05/17 00:29:12;;;;;;;2.47;1.00;;;;;;;10.58;75.73;102636.25;5096884;27;97519;-30
2023/05/17 00:31:38;;;;;;;3.28;1.25;;;;;;;10.66;76.16;102648.66;5096553;27;96539;-29
2023/05/17 00:34:03;;;;;;;2.08;1.02;;;;;;;10.68;75.62;102652.19;5096319;27;96841;-29
2023/05/17 00:36:28;;;;;;;3.60;0.93;;;;;;;10.70;75.60;102655.75;5096750;27;96817;-29
2023/05/17 00:38:54;;;;;;;4.35;0.95;;;;;;;10.66;76.63;102648.66;5096729;27;97511;-29
2023/05/17 00:41:19;;;;;;;2.88;0.70;;;;;;;10.68;76.32;102660.31;5096285;27;99128;-29
2023/05/17 00:43:45;;;;;;;6.78;1.25;;;;;;;10.67;76.50;102642.28;5096388;27;96719;-30
2023/05/17 00:46:10;;;;;;;4.40;1.02;;;;;;;10.62;76.43;102632.47;5096912;27;96790;-29
2023/05/17 00:48:35;;;;;;;2.63;1.05;;;;;;;10.66;76.50;102638.72;5096440;27;97415;-28
2023/05/17 00:51:01;;;;;;;2.00;1.00;;;;;;;10.67;76.43;102636.88;5096874;27;97824;-28
2023/05/17 00:53:27;;;;;;;0.68;0.45;;;;;;;10.69;76.42;102637.72;5096851;27;96750;-29
2023/05/17 00:55:54;;;;;;;2.15;1.08;;;;;;;10.65;76.20;102639.63;5077995;27;96848;-29
2023/05/17 00:58:20;;;;;;;1.90;0.88;;;;;;;10.63;76.19;102630.69;5077002;27;101083;-29
2023/05/17 01:00:46;;;;;;;3.22;1.02;;;;;;;10.66;76.17;102643.25;5077532;27;100990;-29
2023/05/17 01:03:11;;;;;;;2.80;1.20;;;;;;;10.61;76.24;102641.56;5096752;27;96783;-29
2023/05/17 01:05:37;;;;;;;2.60;0.90;;;;;;;10.68;76.27;102644.97;5096697;27;96825;-28
2023/05/17 01:08:02;;;;;;;1.88;0.95;;;;;;;10.64;76.40;102629.72;5077031;27;101013;-28
2023/05/17 01:10:47;;;;;;;4.30;1.38;;;;;;;10.66;76.65;102629.69;5096273;27;97326;-28
2023/05/17 01:13:29;;;;;;;1.95;0.98;;;;;;;10.70;76.65;102645.81;5096612;27;97098;-29
2023/05/17 01:16:09;;;;;;;1.67;0.70;;;;;;;10.60;77.36;102645.19;5096907;27;96546;-28
2023/05/17 01:18:43;;;;;;;3.88;0.70;;;;;;;10.63;76.80;102645.13;5077310;27;101121;-29
2023/05/17 01:21:29;;;;;;;2.20;0.70;;;;;;;10.56;76.54;102634.53;5095951;27;97841;-30
2023/05/17 01:24:10;;;;;;;3.22;1.02;;;;;;;10.60;76.20;102633.47;5077022;27;96660;-29
2023/05/17 01:26:40;;;;;;;6.32;1.00;;;;;;;10.64;76.78;102640.56;5077690;27;96729;-28
2023/05/17 01:29:08;;;;;;;1.35;0.75;;;;;;;10.56;76.69;102624.56;5077195;27;101516;-29
2023/05/17 01:31:35;;;;;;;2.42;0.95;;;;;;;10.57;77.17;102630.88;5076596;27;100882;-29
2023/05/17 01:34:05;;;;;;;4.32;1.15;;;;;;;10.57;76.85;102629.03;5077244;27;96555;-29
2023/05/17 01:36:31;;;;;;;2.38;0.90;;;;;;;10.63;76.92;102636.09;5095938;27;96648;-30
2023/05/17 01:38:59;;;;;;;1.20;0.70;;;;;;;10.60;76.90;102631.66;5095649;27;99204;-28
2023/05/17 01:41:39;;;;;;;1.45;0.80;;;;;;;10.64;77.02;102635.16;5095850;27;99786;-29
2023/05/17 01:44:20;;;;;;;3.50;0.93;;;;;;;10.67;77.35;102639.59;5077037;27;96587;-29
2023/05/17 01:46:46;;;;;;;1.42;0.73;;;;;;;10.66;77.28;102645.97;5096014;27;96634;-29
2023/05/17 01:49:18;;;;;;;5.53;0.77;;;;;;;10.66;77.26;102635.13;5094868;27;99259;-29
2023/05/17 01:51:54;;;;;;;1.17;0.65;;;;;;;10.62;77.38;102632.47;5076745;27;100923;-29
2023/05/17 01:54:27;;;;;;;1.25;0.63;;;;;;;10.63;76.89;102637.00;5077281;27;96598;-29
2023/05/17 01:56:58;;;;;;;2.45;1.02;;;;;;;10.69;77.16;102643.13;5077052;27;96802;-29
2023/05/17 01:59:24;;;;;;;3.33;1.17;;;;;;;10.68;77.28;102650.38;5076626;27;101183;-29
2023/05/17 02:02:04;;;;;;;1.35;0.95;;;;;;;10.69;77.91;102652.16;5076768;27;101250;-29
2023/05/17 02:04:31;;;;;;;4.07;0.90;;;;;;;10.64;77.47;102651.41;5095538;27;96498;-30
2023/05/17 02:06:57;;;;;;;7.03;1.23;;;;;;;10.56;78.13;102645.38;5095554;27;96780;-28
2023/05/17 02:09:22;;;;;;;1.77;0.95;;;;;;;10.52;78.28;102631.03;5095435;27;97857;-29
2023/05/17 02:11:47;;;;;;;3.38;1.10;;;;;;;10.55;78.79;102639.03;5095460;27;97810;-28
2023/05/17 02:14:13;;;;;;;1.83;1.02;;;;;;;10.55;78.36;102633.63;5095079;27;96509;-28
2023/05/17 02:16:38;;;;;;;3.28;1.08;;;;;;;10.54;78.08;102639.13;5095679;27;96860;-29
2023/05/17 02:19:04;;;;;;;3.88;1.15;;;;;;;10.48;78.44;102639.31;5095403;27;97917;-29
2023/05/17 02:21:29;;;;;;;3.47;1.25;;;;;;;10.49;78.85;102644.69;5095000;27;99239;-30
2023/05/17 02:23:54;;;;;;;3.50;1.45;;;;;;;10.54;78.57;102647.25;5095445;27;96443;-29
2023/05/17 02:26:20;;;;;;;4.45;0.77;;;;;;;10.54;78.04;102642.69;5076859;27;96842;-29
2023/05/17 02:28:45;;;;;;;3.65;1.20;;;;;;;10.54;78.94;102634.56;5095047;27;97875;-30
2023/05/17 02:31:11;;;;;;;2.05;0.88;;;;;;;10.52;77.96;102646.41;5095358;27;97789;-28
2023/05/17 02:33:36;;;;;;;1.00;0.60;;;;;;;10.50;78.56;102640.13;5094968;27;96543;-29
2023/05/17 02:36:02;;;;;;;2.33;1.05;;;;;;;10.52;78.50;102640.97;5098283;27;96803;-28
2023/05/17 02:38:27;;;;;;;4.47;1.10;;;;;;;10.53;78.73;102642.75;5098055;27;97528;-28
2023/05/17 02:40:52;;;;;;;4.55;1.00;;;;;;;10.50;78.96;102632.00;5098582;27;97801;-29
2023/05/17 02:43:18;;;;;;;8.75;1.30;;;;;;;10.49;79.02;102644.69;5098838;27;96595;-28
2023/05/17 02:45:44;;;;;;;1.60;0.70;;;;;;;10.42;78.40;102626.84;5099210;27;96858;-29
2023/05/17 02:48:09;;;;;;;1.30;0.73;;;;;;;10.47;78.77;102641.13;5079574;27;100918;-29
2023/05/17 02:50:35;;;;;;;4.20;1.10;;;;;;;10.51;78.59;102640.09;5098412;27;98309;-28
2023/05/17 02:53:00;;;;;;;3.42;0.82;;;;;;;10.51;78.20;102636.47;5098627;27;96608;-29
2023/05/17 02:55:25;;;;;;;3.95;1.17;;;;;;;10.50;78.45;102646.44;5099095;27;96834;-29
2023/05/17 02:57:51;;;;;;;3.50;1.02;;;;;;;10.54;78.16;102652.66;5098029;27;99299;-30
2023/05/17 03:00:16;;;;;;;2.72;1.15;;;;;;;10.55;78.30;102652.59;5097945;27;98662;-28
2023/05/17 03:02:42;;;;;;;3.47;0.95;;;;;;;10.51;78.58;102647.31;5097940;27;96708;-28
2023/05/17 03:05:07;;;;;;;3.42;1.08;;;;;;;10.54;78.46;102661.66;5098287;27;96793;-28
2023/05/17 03:07:33;;;;;;;6.40;0.90;;;;;;;10.54;78.51;102668.91;5097941;27;97871;-28
2023/05/17 03:09:58;;;;;;;2.58;0.90;;;;;;;10.50;78.62;102657.28;5097767;27;99019;-28
2023/05/17 03:12:23;;;;;;;2.33;0.80;;;;;;;10.49;79.01;102652.81;5098053;27;96592;-29
2023/05/17 03:14:49;;;;;;;3.58;1.05;;;;;;;10.52;79.25;102659.94;5098640;27;96817;-29
2023/05/17 03:17:14;;;;;;;1.65;0.70;;;;;;;10.52;79.15;102668.06;5097944;27;97977;-29
2023/05/17 03:19:39;;;;;;;1.23;0.57;;;;;;;10.48;79.58;102669.09;5098103;27;99090;-28
2023/05/17 03:22:05;;;;;;;3.58;1.00;;;;;;;10.45;79.36;102661.97;5097730;27;96662;-29
2023/05/17 03:24:30;;;;;;;1.77;1.00;;;;;;;10.46;79.56;102661.00;5097977;27;96753;-29
2023/05/17 03:26:55;;;;;;;1.45;0.88;;;;;;;10.46;79.44;102662.84;5097239;27;97941;-30
2023/05/17 03:29:21;;;;;;;2.70;0.90;;;;;;;10.47;78.69;102661.94;5097511;27;99125;-29
2023/05/17 03:31:46;;;;;;;2.35;1.10;;;;;;;10.49;78.94;102668.19;5097896;27;96786;-28
2023/05/17 03:34:11;;;;;;;2.80;1.02;;;;;;;10.52;79.63;102674.38;5097602;27;100132;-29
2023/05/17 03:36:40;;;;;;;4.18;0.77;;;;;;;10.47;79.07;102660.09;5097580;27;97424;-29
2023/05/17 03:39:06;;;;;;;1.67;0.75;;;;;;;10.50;78.99;102676.25;5078888;27;100866;-29
2023/05/17 03:41:32;;;;;;;1.52;0.70;;;;;;;10.48;79.17;102678.09;5097848;27;96569;-28
2023/05/17 03:43:57;;;;;;;5.70;1.33;;;;;;;10.49;79.12;102676.31;5097882;27;96796;-29
2023/05/17 03:46:22;;;;;;;3.95;0.80;;;;;;;10.49;79.27;102684.44;5096144;27;99299;-29
2023/05/17 03:48:48;;;;;;;2.55;1.02;;;;;;;10.46;79.25;102679.09;5097370;27;99290;-29
2023/05/17 03:51:14;;;;;;;1.15;0.70;;;;;;;10.46;79.08;102681.81;5097118;27;96647;-29
2023/05/17 03:53:42;;;;;;;1.38;0.75;;;;;;;10.41;79.30;102677.41;5079045;27;96858;-30
2023/05/17 03:56:08;;;;;;;1.20;0.80;;;;;;;10.47;79.10;102686.31;5078658;27;101662;-28
2023/05/17 03:58:33;;;;;;;4.25;0.70;;;;;;;10.41;79.51;102681.94;5097259;27;97241;-28
2023/05/17 04:00:59;;;;;;;2.72;1.13;;;;;;;10.50;79.77;102697.03;5097224;27;96624;-28
2023/05/17 04:03:24;;;;;;;2.80;0.55;;;;;;;10.47;78.95;102692.59;5097231;27;96959;-29
2023/05/17 04:05:50;;;;;;;4.47;1.02;;;;;;;10.44;78.89;102681.88;5078280;27;101004;-28
2023/05/17 04:08:15;;;;;;;3.47;1.30;;;;;;;10.49;79.56;102698.00;5097333;27;98002;-30
2023/05/17 04:10:41;;;;;;;4.85;1.30;;;;;;;10.41;79.21;102698.19;5097524;27;96807;-29
2023/05/17 04:13:08;;;;;;;2.22;1.10;;;;;;;10.45;79.60;102705.31;5097484;27;96812;-30
2023/05/17 04:15:33;;;;;;;5.13;0.93;;;;;;;10.44;79.81;102705.34;5077932;27;100843;-29
2023/05/17 04:17:59;;;;;;;2.53;1.35;;;;;;;10.39;80.00;102709.09;5096765;27;99119;-28
2023/05/17 04:20:24;;;;;;;2.97;1.05;;;;;;;10.41;79.64;102711.75;5097130;27;96551;-29
2023/05/17 04:22:50;;;;;;;3.10;1.35;;;;;;;10.43;79.64;102717.13;5096953;27;96857;-28
2023/05/17 04:25:16;;;;;;;2.03;0.93;;;;;;;10.43;79.89;102715.31;5096450;27;99725;-28
2023/05/17 04:27:41;;;;;;;3.03;1.15;;;;;;;10.47;79.05;102719.69;5096627;27;99779;-29
2023/05/17 04:30:07;;;;;;;2.08;0.98;;;;;;;10.48;79.76;102728.72;5097217;27;96769;-30
2023/05/17 04:32:33;;;;;;;1.92;0.85;;;;;;;10.36;79.18;102705.59;5078363;27;96991;-29
2023/05/17 04:34:59;;;;;;;5.32;1.08;;;;;;;10.42;80.35;102732.50;5096354;27;99341;-29
2023/05/17 04:37:25;;;;;;;2.15;0.85;;;;;;;10.41;79.28;102730.72;5077869;27;101037;-29
2023/05/17 04:39:51;;;;;;;1.63;0.80;;;;;;;10.37;79.79;102737.19;5096231;27;96744;-28
2023/05/17 04:42:17;;;;;;;1.92;0.85;;;;;;;10.37;79.06;102732.63;5078230;27;96923;-29
2023/05/17 04:44:42;;;;;;;2.78;0.82;;;;;;;10.45;78.53;102750.47;5096412;27;98413;-28
2023/05/17 04:47:08;;;;;;;1.05;0.47;;;;;;;10.41;78.64;102747.84;5096525;27;97638;-28
2023/05/17 04:49:33;;;;;;;2.88;0.80;;;;;;;10.45;77.67;102751.38;5096694;27;96631;-29
2023/05/17 04:51:59;;;;;;;0.75;0.52;;;;;;;10.40;78.35;102745.19;5096440;27;96892;-28
2023/05/17 04:54:25;;;;;;;2.47;0.80;;;;;;;10.42;77.56;102767.72;5096137;27;99283;-30
2023/05/17 04:56:50;;;;;;;3.60;0.77;;;;;;;10.48;77.16;102772.06;5077708;27;101453;-29
2023/05/17 04:59:16;;;;;;;0.88;0.57;;;;;;;10.45;76.74;102764.03;5096709;27;96718;-29
2023/05/17 05:01:41;;;;;;;3.30;0.90;;;;;;;10.46;76.70;102772.09;5096842;27;96525;-29
2023/05/17 05:04:07;;;;;;;1.80;0.65;;;;;;;10.44;76.61;102771.28;5095510;27;97894;-29
2023/05/17 05:06:33;;;;;;;1.02;0.45;;;;;;;10.49;76.25;102771.13;5095765;27;99391;-29
2023/05/17 05:08:59;;;;;;;2.13;0.65;;;;;;;10.46;75.92;102773.91;5077886;27;96828;-29
2023/05/17 05:11:25;;;;;;;6.22;0.90;;;;;;;10.43;75.85;102774.91;5077785;27;96905;-28
2023/05/17 05:13:50;;;;;;;2.10;0.70;;;;;;;10.45;75.63;102786.59;5096170;27;97996;-29
2023/05/17 05:16:15;;;;;;;1.92;0.63;;;;;;;10.54;75.66;102797.16;5095748;27;99216;-28
2023/05/17 05:18:41;;;;;;;1.80;0.57;;;;;;;10.60;75.46;102801.50;5096305;27;96806;-28
2023/05/17 05:21:06;;;;;;;7.05;0.85;;;;;;;10.61;75.17;102803.28;5096760;27;96860;-29
2023/05/17 05:23:31;;;;;;;3.75;0.65;;;;;;;10.64;75.09;102803.19;5095970;27;98011;-29
2023/05/17 05:25:57;;;;;;;2.25;0.70;;;;;;;10.71;74.65;102812.03;5095768;27;99445;-30
2023/05/17 05:28:22;;;;;;;1.17;0.63;;;;;;;10.69;74.57;102798.50;5095705;27;96624;-28
2023/05/17 05:30:47;;;;;;;5.80;0.85;;;;;;;10.75;74.62;102805.53;5096164;27;96777;-29
2023/05/17 05:33:13;;;;;;;0.88;0.40;;;;;;;10.80;74.16;102814.44;5094894;27;99341;-28
2023/05/17 05:35:38;;;;;;;2.75;0.60;;;;;;;10.83;73.77;102815.22;5095814;27;97224;-29
2023/05/17 05:38:04;;;;;;;1.92;0.50;;;;;;;10.89;73.69;102808.72;5096185;27;96540;-29
2023/05/17 05:40:29;;;;;;;5.38;0.90;;;;;;;11.01;73.45;102815.56;5095839;27;96798;-29
2023/05/17 05:42:55;;;;;;;3.58;0.55;;;;;;;11.08;72.90;102819.00;5095451;27;99526;-30
2023/05/17 05:45:20;;;;;;;6.28;0.60;;;;;;;11.07;72.59;102817.22;5095700;27;99573;-29
2023/05/17 05:47:46;;;;;;;1.40;0.50;;;;;;;11.22;72.51;102835.72;5095755;27;96444;-28
2023/05/17 05:50:11;;;;;;;2.92;0.43;;;;;;;11.25;72.40;102827.50;5096046;27;96812;-28
2023/05/17 05:52:37;;;;;;;2.88;0.77;;;;;;;11.34;72.29;102834.41;5095100;27;98247;-29
2023/05/17 05:55:03;;;;;;;2.03;0.90;;;;;;;11.42;72.19;102830.53;5095363;27;98966;-29
2023/05/17 05:57:28;;;;;;;2.92;0.75;;;;;;;11.46;72.19;102832.22;5095792;27;96537;-30
2023/05/17 05:59:54;;;;;;;1.27;0.50;;;;;;;11.51;71.79;102839.28;5095935;27;96785;-28
2023/05/17 06:02:20;;;;;;;2.92;0.50;;;;;;;11.58;71.62;102840.84;5095417;27;97931;-28
2023/05/17 06:04:46;;;;;;;1.15;0.40;;;;;;;11.63;71.07;102838.88;5095409;27;98132;-29
2023/05/17 06:07:13;;;;;;;1.23;0.47;;;;;;;11.71;70.83;102847.66;5076841;27;96806;-29
2023/05/17 06:09:39;;;;;;;5.53;0.50;;;;;;;11.77;70.27;102847.44;5078392;27;96816;-29
2023/05/17 06:12:04;;;;;;;3.22;0.43;;;;;;;11.87;70.46;102848.06;5080346;27;100833;-28
2023/05/17 06:14:30;;;;;;;4.88;0.80;;;;;;;11.94;70.27;102849.63;5099096;27;97831;-29
2023/05/17 06:16:55;;;;;;;5.65;0.77;;;;;;;12.03;70.12;102849.25;5098463;27;96676;-30
2023/05/17 06:19:20;;;;;;;4.63;0.75;;;;;;;12.18;69.80;102847.84;5098974;27;96832;-29
2023/05/17 06:21:46;;;;;;;0.80;0.50;;;;;;;12.21;69.20;102844.13;5098673;27;99225;-29
2023/05/17 06:24:11;;;;;;;6.30;0.93;;;;;;;12.30;68.61;102852.84;5098622;27;99487;-28
2023/05/17 06:26:37;;;;;;;4.13;0.45;;;;;;;12.41;68.59;102836.13;5099050;27;96551;-29
2023/05/17 06:29:02;;;;;;;2.28;0.68;;;;;;;12.51;68.42;102850.25;5099228;27;96787;-28
2023/05/17 06:31:28;;;;;;;6.88;1.05;;;;;;;12.48;67.96;102844.94;5098558;27;97920;-29
2023/05/17 06:33:53;;;;;;;1.77;0.77;;;;;;;12.64;67.76;102859.72;5098613;27;97865;-29
2023/05/17 06:36:18;;;;;;;5.93;0.77;;;;;;;12.73;67.24;102859.38;5099006;27;96695;-29
2023/05/17 06:38:44;;;;;;;5.95;0.60;;;;;;;12.88;67.14;102859.72;5099046;27;96735;-29
2023/05/17 06:41:09;;;;;;;2.60;0.25;;;;;;;13.04;66.84;102854.56;5098242;27;97957;-28
2023/05/17 06:43:34;;;;;;;5.45;0.77;;;;;;;13.15;66.15;102855.03;5098291;27;99317;-29
2023/05/17 06:46:00;;;;;;;4.07;0.57;;;;;;;13.20;65.75;102863.00;5098821;27;96495;-28
2023/05/17 06:48:25;;;;;;;3.20;0.50;;;;;;;13.20;65.12;102858.44;5098497;27;96798;-29
2023/05/17 06:50:51;;;;;;;1.70;0.50;;;;;;;13.24;64.17;102860.09;5098356;27;97896;-29
2023/05/17 06:53:16;;;;;;;2.03;0.47;;;;;;;13.28;63.58;102858.19;5098369;27;97799;-29
2023/05/17 06:55:42;;;;;;;3.00;0.82;;;;;;;13.36;64.11;102861.47;5098801;27;96618;-29
2023/05/17 06:58:07;;;;;;;5.57;0.77;;;;;;;13.45;63.42;102858.38;5098868;27;96851;-28
2023/05/17 07:00:33;;;;;;;1.30;0.57;;;;;;;13.54;62.34;102871.59;5079472;27;101287;-28
2023/05/17 07:02:58;;;;;;;3.17;0.85;;;;;;;13.58;61.69;102872.34;5097949;27;99157;-29
2023/05/17 07:05:24;;;;;;;2.40;0.65;;;;;;;13.57;61.76;102876.91;5097664;27;96520;-28
2023/05/17 07:07:49;;;;;;;4.22;0.63;;;;;;;13.66;60.23;102875.66;5098137;27;96821;-29
2023/05/17 07:10:15;;;;;;;2.20;0.40;;;;;;;13.77;61.66;102880.63;5097850;27;99523;-29
2023/05/17 07:12:40;;;;;;;1.70;0.50;;;;;;;13.80;60.06;102870.50;5098096;27;97826;-29
2023/05/17 07:15:06;;;;;;;2.78;0.50;;;;;;;13.92;59.45;102879.09;5098337;27;96586;-29
2023/05/17 07:17:32;;;;;;;4.25;0.52;;;;;;;14.00;60.69;102882.38;5079516;27;96975;-29
2023/05/17 07:19:57;;;;;;;0.77;0.50;;;;;;;14.18;59.70;102880.69;5097825;27;96847;-29
2023/05/17 07:22:23;;;;;;;1.60;0.57;;;;;;;14.22;58.06;102885.94;5098029;27;99310;-29
2023/05/17 07:24:48;;;;;;;4.32;1.13;;;;;;;14.28;59.23;102873.88;5098238;27;96578;-29
2023/05/17 07:27:13;;;;;;;2.88;0.77;;;;;;;14.42;58.03;102895.97;5098070;27;96833;-29
2023/05/17 07:29:41;;;;;;;4.82;0.57;;;;;;;14.49;58.94;102893.84;5097288;27;97952;-30
2023/05/17 07:32:06;;;;;;;2.03;0.52;;;;;;;14.68;59.09;102884.84;5078183;27;101322;-29
2023/05/17 07:34:32;;;;;;;2.80;0.85;;;;;;;14.62;58.66;102903.25;5079264;27;96807;-29
2023/05/17 07:36:57;;;;;;;3.70;0.52;;;;;;;14.68;59.12;102898.47;5097965;27;96856;-29
2023/05/17 07:39:23;;;;;;;3.00;0.55;;;;;;;14.88;58.83;102884.81;5097630;27;98125;-29
2023/05/17 07:41:48;;;;;;;4.78;0.77;;;;;;;15.08;57.55;102898.38;5097613;27;98276;-29
2023/05/17 07:44:13;;;;;;;3.80;0.60;;;;;;;15.06;57.19;102905.78;5097930;27;96582;-30
2023/05/17 07:46:39;;;;;;;0.55;0.30;;;;;;;15.12;57.13;102893.66;5097921;27;96809;-29
2023/05/17 07:49:04;;;;;;;5.13;0.63;;;;;;;15.30;56.25;102908.25;5097597;27;98201;-29
2023/05/17 07:51:30;;;;;;;4.13;0.63;;;;;;;15.40;57.52;102908.72;5097380;27;97734;-28
2023/05/17 07:53:56;;;;;;;4.28;0.55;;;;;;;15.24;55.90;102914.03;5097033;27;96577;-30
2023/05/17 07:56:21;;;;;;;3.55;0.52;;;;;;;15.17;56.60;102907.97;5097719;27;96843;-29
2023/05/17 07:58:46;;;;;;;5.75;1.00;;;;;;;15.19;56.20;102906.06;5097244;27;97863;-29
2023/05/17 08:01:12;;;;;;;1.30;0.70;;;;;;;15.25;55.58;102904.88;5097071;27;97924;-29
2023/05/17 08:03:37;;;;;;;4.00;0.43;;;;;;;15.12;55.39;102914.63;5097913;27;96641;-29
2023/05/17 08:06:04;;;;;;;1.98;0.47;;;;;;;14.77;56.33;102909.84;5097326;27;96867;-29
2023/05/17 08:08:29;;;;;;;3.88;0.43;;;;;;;14.84;57.00;102905.00;5096788;27;97996;-28
2023/05/17 08:10:55;;;;;;;3.55;0.52;;;;;;;15.00;56.62;102916.09;5097307;27;99327;-28
2023/05/17 08:13:22;;;;;;;2.15;0.70;;;;;;;15.23;56.46;102917.72;5097818;27;96704;-29
2023/05/17 08:15:47;;;;;;;4.82;0.55;;;;;;;15.35;55.58;102917.13;5078551;27;96875;-29
2023/05/17 08:18:13;;;;;;;1.60;0.55;;;;;;;15.56;55.31;102919.75;5096486;27;97608;-29
2023/05/17 08:20:38;;;;;;;1.38;0.68;;;;;;;15.67;53.85;102923.72;5097081;27;97874;-29
2023/05/17 08:23:03;;;;;;;4.28;0.95;;;;;;;15.77;53.75;102912.38;5097100;27;96564;-30
2023/05/17 08:25:29;;;;;;;1.55;0.40;;;;;;;15.83;52.82;102925.75;5097188;27;96714;-28
2023/05/17 08:27:55;;;;;;;4.00;0.82;;;;;;;15.89;54.08;102925.41;5096617;27;99248;-29
2023/05/17 08:30:20;;;;;;;1.90;0.75;;;;;;;15.99;52.86;102928.56;5096212;27;98939;-29
2023/05/17 08:32:46;;;;;;;2.13;0.40;;;;;;;15.93;53.47;102922.44;5095495;27;99361;-29
2023/05/17 08:35:12;;;;;;;2.05;0.57;;;;;;;16.02;52.71;102929.31;5078616;27;96935;-29
2023/05/17 08:37:38;;;;;;;0.75;0.22;;;;;;;16.02;52.29;102914.75;5096781;27;98004;-29
2023/05/17 08:40:05;;;;;;;1.35;0.65;;;;;;;16.08;52.85;102915.31;5077997;27;101282;-28
2023/05/17 08:42:31;;;;;;;2.65;0.60;;;;;;;16.20;52.02;102923.84;5077643;27;96786;-29
2023/05/17 08:44:56;;;;;;;6.18;0.68;;;;;;;16.27;51.97;102915.22;5077701;27;96856;-29
2023/05/17 08:47:28;;;;;;;3.13;0.75;;;;;;;16.39;51.41;102913.69;5096718;27;98107;-29
2023/05/17 08:49:59;;;;;;;1.02;0.38;;;;;;;16.58;50.90;102918.19;5096309;27;99339;-29
2023/05/17 08:52:31;;;;;;;0.67;0.30;;;;;;;16.71;51.24;102917.47;5078201;27;96604;-29
2023/05/17 08:54:57;;;;;;;1.40;0.30;;;;;;;16.88;50.62;102923.91;5077976;27;96901;-29
2023/05/17 08:57:27;;;;;;;1.77;0.30;;;;;;;16.83;50.68;102917.75;5077546;27;99264;-30
2023/05/17 08:59:54;;;;;;;0.95;0.40;;;;;;;16.53;49.85;102927.53;5078053;27;101735;-29
2023/05/17 09:02:20;;;;;;;0.90;0.30;;;;;;;16.50;48.23;102935.03;5077919;27;96714;-28
2023/05/17 09:04:54;;;;;;;0.25;0.22;;;;;;;16.51;48.77;102926.72;5077770;27;96624;-29
2023/05/17 09:07:20;;;;;;;0.98;0.40;;;;;;;16.65;49.60;102919.63;5076823;27;101126;-29
2023/05/17 09:09:45;;;;;;;2.30;0.50;;;;;;;16.66;50.46;102913.19;5077304;27;100960;-29
2023/05/17 09:12:11;;;;;;;2.25;0.65;;;;;;;16.80;50.02;102924.28;5096615;27;96601;-29
2023/05/17 09:14:38;;;;;;;2.92;0.55;;;;;;;16.82;48.49;102925.09;5096193;27;96934;-29
2023/05/17 09:17:03;;;;;;;2.60;0.43;;;;;;;16.83;48.43;102931.44;5077258;27;100881;-29
2023/05/17 09:19:29;;;;;;;0.75;0.40;;;;;;;16.79;47.71;102925.28;5095708;27;98745;-29
2023/05/17 09:21:55;;;;;;;1.73;0.38;;;;;;;16.88;48.06;102927.53;5096267;27;96487;-29
2023/05/17 09:24:28;;;;;;;0.50;0.30;;;;;;;17.10;45.56;102932.69;5096311;27;96816;-30
2023/05/17 09:27:00;;;;;;;4.03;0.40;;;;;;;17.04;45.31;102933.03;5095844;27;98789;-29
2023/05/17 09:29:29;;;;;;;0.15;0.15;;;;;;;16.95;45.72;102928.94;5077150;27;101462;-29
2023/05/17 09:31:54;;;;;;;3.65;0.60;;;;;;;16.90;44.69;102939.28;5076499;27;96893;-28
2023/05/17 09:34:20;;;;;;;1.25;0.50;;;;;;;17.10;47.04;102934.53;5096033;27;96835;-29
2023/05/17 09:36:45;;;;;;;2.97;0.70;;;;;;;17.22;46.53;102932.97;5095995;27;97383;-29
2023/05/17 09:39:11;;;;;;;2.45;0.40;;;;;;;17.36;46.48;102942.16;5095765;27;97882;-28
2023/05/17 09:41:42;;;;;;;5.13;0.68;;;;;;;17.17;44.59;102941.44;5077480;27;96743;-29
2023/05/17 09:44:09;;;;;;;0.57;0.30;;;;;;;17.19;45.79;102945.00;5077588;27;96828;-29
2023/05/17 09:46:35;;;;;;;1.63;0.38;;;;;;;17.24;46.57;102934.66;5099227;27;98915;-28
2023/05/17 09:49:01;;;;;;;1.40;0.35;;;;;;;17.23;45.88;102921.91;5081175;27;100758;-29
2023/05/17 09:51:35;;;;;;;8.10;0.57;;;;;;;17.30;44.98;102927.94;5099574;27;96530;-29
2023/05/17 09:54:00;;;;;;;3.22;0.90;;;;;;;17.27;44.88;102934.47;5099624;27;96659;-29
2023/05/17 09:56:30;;;;;;;2.55;0.57;;;;;;;17.43;46.41;102942.72;5098661;27;99366;-29
2023/05/17 09:58:57;;;;;;;1.20;0.40;;;;;;;17.52;45.94;102935.78;5080526;27;101321;-29
2023/05/17 10:01:26;;;;;;;2.78;0.65;;;;;;;17.65;45.02;102927.78;5080768;27;97127;-29
2023/05/17 10:03:53;;;;;;;2.78;0.65;;;;;;;17.74;46.55;102924.50;5099161;27;96833;-29
2023/05/17 10:06:20;;;;;;;2.60;0.45;;;;;;;17.83;46.29;102930.34;5080527;27;101407;-28
2023/05/17 10:08:52;;;;;;;4.68;0.57;;;;;;;17.84;44.79;102928.47;5080331;27;99687;-29
2023/05/17 10:11:21;;;;;;;1.15;0.40;;;;;;;18.01;45.15;102917.38;5080691;27;96599;-29
2023/05/17 10:13:54;;;;;;;4.90;1.00;;;;;;;18.09;44.28;102925.19;5099532;27;96764;-29
2023/05/17 10:16:23;;;;;;;3.63;0.80;;;;;;;18.24;45.70;102912.38;5080384;27;101132;-29
2023/05/17 10:18:48;;;;;;;5.80;0.55;;;;;;;18.30;45.11;102925.72;5080174;27;100981;-29
2023/05/17 10:21:14;;;;;;;1.17;0.63;;;;;;;18.29;45.20;102931.31;5098785;27;96532;-29
2023/05/17 10:23:42;;;;;;;3.08;0.73;;;;;;;18.33;45.42;102930.13;5080522;27;96873;-29
2023/05/17 10:26:08;;;;;;;2.47;0.70;;;;;;;18.41;44.72;102936.03;5079981;27;101136;-29
2023/05/17 10:28:35;;;;;;;2.70;0.85;;;;;;;18.39;45.18;102916.03;5080291;27;101106;-28
2023/05/17 10:31:02;;;;;;;4.10;0.73;;;;;;;18.42;45.33;102927.72;5098638;27;96508;-29
2023/05/17 10:33:31;;;;;;;4.25;0.63;;;;;;;18.46;45.14;102920.16;5079994;27;96900;-29
2023/05/17 10:35:57;;;;;;;4.65;1.00;;;;;;;18.53;45.42;102924.31;5079830;27;103125;-29
2023/05/17 10:38:23;;;;;;;2.28;0.40;;;;;;;18.63;44.77;102920.00;5099032;27;97336;-29
2023/05/17 10:40:50;;;;;;;3.60;0.70;;;;;;;18.68;44.43;102916.97;5080175;27;96666;-29
2023/05/17 10:43:17;;;;;;;2.60;0.52;;;;;;;18.65;44.03;102922.66;5098530;27;96861;-28
2023/05/17 10:45:42;;;;;;;1.80;0.73;;;;;;;18.66;43.20;102922.56;5078805;27;100829;-30
2023/05/17 10:48:09;;;;;;;2.22;0.43;;;;;;;18.46;43.52;102929.28;5098618;27;97937;-28
2023/05/17 10:50:41;;;;;;;0.47;0.25;;;;;;;18.46;42.90;102931.16;5080065;27;96734;-30
2023/05/17 10:53:10;;;;;;;2.05;0.80;;;;;;;18.59;43.58;102923.03;5098821;27;96637;-29
2023/05/17 10:55:41;;;;;;;2.58;0.43;;;;;;;18.58;43.50;102929.50;5097569;27;99732;-29
2023/05/17 10:58:09;;;;;;;4.50;0.90;;;;;;;18.73;42.87;102935.91;5079531;27;100766;-29
2023/05/17 11:00:39;;;;;;;2.00;0.57;;;;;;;18.67;43.20;102918.84;5098475;27;96652;-29
2023/05/17 11:03:12;;;;;;;1.38;0.35;;;;;;;18.80;43.12;102926.31;5098891;27;96812;-29
2023/05/17 11:05:42;;;;;;;7.18;0.85;;;;;;;18.56;42.30;102929.59;5079492;27;101084;-31
2023/05/17 11:08:14;;;;;;;4.72;0.50;;;;;;;18.58;43.19;102933.13;5097696;27;99330;-29
2023/05/17 11:11:18;;;;;;;2.03;0.63;;;;;;;18.66;43.43;102916.16;5097538;27;96655;-29
2023/05/17 11:13:46;;;;;;;1.33;0.52;;;;;;;18.60;43.29;102925.69;5098105;27;96846;-29
2023/05/17 11:16:15;;;;;;;3.33;0.60;;;;;;;18.48;41.98;102926.44;5079152;27;100883;-29
2023/05/17 11:18:52;;;;;;;2.75;0.90;;;;;;;18.54;42.14;102926.06;5079163;27;100825;-29
2023/05/17 11:21:19;;;;;;;2.08;0.47;;;;;;;18.71;43.36;102925.03;5079382;27;96585;-29